sensor_id;sensor_type;location;lat;lon;timestamp;P1;durP1;ratioP1;P2;durP2;ratioP2
10945;SDS011;5525;42.648;23.368;2023-06-22T00:01:12;7.97;;;7.20;;
10945;SDS011;5525;42.648;23.368;2023-06-22T00:03:39;8.65;;;7.75;;
10945;SDS011;5525;42.648;23.368;2023-06-22T00:06:07;7.90;;;7.10;;
10945;SDS011;5525;42.648;23.368;2023-06-22T00:08:34;8.10;;;6.75;;
10945;SDS011;5525;42.648;23.368;2023-06-22T00:11:00;8.57;;;7.78;;
10945;SDS011;5525;42.648;23.368;2023-06-22T00:13:27;9.57;;;7.60;;
10945;SDS011;5525;42.648;23.368;2023-06-22T00:15:54;8.88;;;8.00;;
10945;SDS011;5525;42.648;23.368;2023-06-22T00:18:20;9.10;;;7.65;;
10945;SDS011;5525;42.648;23.368;2023-06-22T00:20:47;8.55;;;7.70;;
10945;SDS011;5525;42.648;23.368;2023-06-22T00:23:15;11.13;;;8.57;;
10945;SDS011;5525;42.648;23.368;2023-06-22T00:25:42;11.50;;;9.10;;
10945;SDS011;5525;42.648;23.368;2023-06-22T00:28:09;9.35;;;7.97;;
10945;SDS011;5525;42.648;23.368;2023-06-22T00:30:36;9.63;;;7.90;;
10945;SDS011;5525;42.648;23.368;2023-06-22T00:33:02;8.93;;;7.07;;
10945;SDS011;5525;42.648;23.368;2023-06-22T00:35:32;8.65;;;7.10;;
10945;SDS011;5525;42.648;23.368;2023-06-22T00:38:00;10.88;;;8.68;;
10945;SDS011;5525;42.648;23.368;2023-06-22T00:40:30;9.65;;;8.45;;
10945;SDS011;5525;42.648;23.368;2023-06-22T00:42:58;9.05;;;7.35;;
10945;SDS011;5525;42.648;23.368;2023-06-22T00:45:25;8.60;;;7.65;;
10945;SDS011;5525;42.648;23.368;2023-06-22T00:47:52;11.25;;;8.27;;
10945;SDS011;5525;42.648;23.368;2023-06-22T00:50:20;10.43;;;8.68;;
10945;SDS011;5525;42.648;23.368;2023-06-22T00:52:48;11.40;;;10.20;;
10945;SDS011;5525;42.648;23.368;2023-06-22T00:55:18;10.23;;;9.13;;
10945;SDS011;5525;42.648;23.368;2023-06-22T00:57:47;9.45;;;8.55;;
10945;SDS011;5525;42.648;23.368;2023-06-22T01:00:14;9.52;;;8.55;;
10945;SDS011;5525;42.648;23.368;2023-06-22T01:02:42;9.82;;;8.82;;
10945;SDS011;5525;42.648;23.368;2023-06-22T01:05:11;8.57;;;7.68;;
10945;SDS011;5525;42.648;23.368;2023-06-22T01:07:39;11.45;;;8.73;;
10945;SDS011;5525;42.648;23.368;2023-06-22T01:10:14;9.68;;;8.77;;
10945;SDS011;5525;42.648;23.368;2023-06-22T01:12:51;10.35;;;9.27;;
10945;SDS011;5525;42.648;23.368;2023-06-22T01:15:21;10.27;;;8.90;;
10945;SDS011;5525;42.648;23.368;2023-06-22T01:17:54;9.60;;;8.70;;
10945;SDS011;5525;42.648;23.368;2023-06-22T01:20:23;9.88;;;8.90;;
10945;SDS011;5525;42.648;23.368;2023-06-22T01:22:57;10.23;;;9.32;;
10945;SDS011;5525;42.648;23.368;2023-06-22T01:25:33;10.10;;;8.98;;
10945;SDS011;5525;42.648;23.368;2023-06-22T01:28:10;10.60;;;9.60;;
10945;SDS011;5525;42.648;23.368;2023-06-22T01:30:47;11.23;;;9.95;;
10945;SDS011;5525;42.648;23.368;2023-06-22T01:33:28;11.65;;;9.63;;
10945;SDS011;5525;42.648;23.368;2023-06-22T01:35:58;10.88;;;9.43;;
10945;SDS011;5525;42.648;23.368;2023-06-22T01:38:25;9.70;;;8.80;;
10945;SDS011;5525;42.648;23.368;2023-06-22T01:40:54;10.73;;;9.48;;
10945;SDS011;5525;42.648;23.368;2023-06-22T01:43:22;10.10;;;9.02;;
10945;SDS011;5525;42.648;23.368;2023-06-22T01:45:52;10.65;;;9.57;;
10945;SDS011;5525;42.648;23.368;2023-06-22T01:48:20;12.40;;;9.65;;
10945;SDS011;5525;42.648;23.368;2023-06-22T01:50:47;10.23;;;9.20;;
10945;SDS011;5525;42.648;23.368;2023-06-22T01:53:14;11.25;;;9.35;;
10945;SDS011;5525;42.648;23.368;2023-06-22T01:55:41;10.90;;;8.77;;
10945;SDS011;5525;42.648;23.368;2023-06-22T01:58:08;9.95;;;8.95;;
10945;SDS011;5525;42.648;23.368;2023-06-22T02:00:36;10.10;;;9.13;;
10945;SDS011;5525;42.648;23.368;2023-06-22T02:03:08;9.95;;;8.93;;
10945;SDS011;5525;42.648;23.368;2023-06-22T02:05:38;9.82;;;8.88;;
10945;SDS011;5525;42.648;23.368;2023-06-22T02:08:10;10.63;;;9.43;;
10945;SDS011;5525;42.648;23.368;2023-06-22T02:10:41;11.60;;;9.55;;
10945;SDS011;5525;42.648;23.368;2023-06-22T02:13:10;10.63;;;9.63;;
10945;SDS011;5525;42.648;23.368;2023-06-22T02:15:39;9.98;;;8.98;;
10945;SDS011;5525;42.648;23.368;2023-06-22T02:18:07;11.63;;;10.07;;
10945;SDS011;5525;42.648;23.368;2023-06-22T02:20:35;10.82;;;9.73;;
10945;SDS011;5525;42.648;23.368;2023-06-22T02:23:02;11.80;;;10.07;;
10945;SDS011;5525;42.648;23.368;2023-06-22T02:25:29;10.35;;;9.13;;
10945;SDS011;5525;42.648;23.368;2023-06-22T02:27:57;9.88;;;8.93;;
10945;SDS011;5525;42.648;23.368;2023-06-22T02:30:23;9.50;;;8.60;;
10945;SDS011;5525;42.648;23.368;2023-06-22T02:32:50;14.18;;;8.60;;
10945;SDS011;5525;42.648;23.368;2023-06-22T02:35:25;17.95;;;9.63;;
10945;SDS011;5525;42.648;23.368;2023-06-22T02:37:56;12.25;;;9.45;;
10945;SDS011;5525;42.648;23.368;2023-06-22T02:40:23;12.57;;;9.80;;
10945;SDS011;5525;42.648;23.368;2023-06-22T02:42:49;13.38;;;9.88;;
10945;SDS011;5525;42.648;23.368;2023-06-22T02:45:16;10.40;;;9.30;;
10945;SDS011;5525;42.648;23.368;2023-06-22T02:47:43;13.07;;;9.23;;
10945;SDS011;5525;42.648;23.368;2023-06-22T02:50:09;10.27;;;9.10;;
10945;SDS011;5525;42.648;23.368;2023-06-22T02:52:37;11.75;;;9.80;;
10945;SDS011;5525;42.648;23.368;2023-06-22T02:55:05;10.60;;;9.57;;
10945;SDS011;5525;42.648;23.368;2023-06-22T02:57:33;13.45;;;9.68;;
10945;SDS011;5525;42.648;23.368;2023-06-22T03:00:00;10.50;;;9.40;;
10945;SDS011;5525;42.648;23.368;2023-06-22T03:02:37;14.38;;;10.35;;
10945;SDS011;5525;42.648;23.368;2023-06-22T03:05:03;12.55;;;11.25;;
10945;SDS011;5525;42.648;23.368;2023-06-22T03:07:31;13.02;;;10.40;;
10945;SDS011;5525;42.648;23.368;2023-06-22T03:09:59;14.05;;;9.38;;
10945;SDS011;5525;42.648;23.368;2023-06-22T03:12:25;13.35;;;9.90;;
10945;SDS011;5525;42.648;23.368;2023-06-22T03:14:52;11.25;;;10.05;;
10945;SDS011;5525;42.648;23.368;2023-06-22T03:17:19;12.95;;;10.75;;
10945;SDS011;5525;42.648;23.368;2023-06-22T03:19:45;14.43;;;9.90;;
10945;SDS011;5525;42.648;23.368;2023-06-22T03:22:12;15.63;;;10.15;;
10945;SDS011;5525;42.648;23.368;2023-06-22T03:24:40;11.40;;;9.10;;
10945;SDS011;5525;42.648;23.368;2023-06-22T03:27:08;15.10;;;9.20;;
10945;SDS011;5525;42.648;23.368;2023-06-22T03:29:34;11.13;;;9.45;;
10945;SDS011;5525;42.648;23.368;2023-06-22T03:32:01;12.93;;;9.70;;
10945;SDS011;5525;42.648;23.368;2023-06-22T03:34:30;16.30;;;9.52;;
10945;SDS011;5525;42.648;23.368;2023-06-22T03:36:58;13.15;;;10.35;;
10945;SDS011;5525;42.648;23.368;2023-06-22T03:39:25;14.40;;;10.57;;
10945;SDS011;5525;42.648;23.368;2023-06-22T03:41:51;15.05;;;10.80;;
10945;SDS011;5525;42.648;23.368;2023-06-22T03:44:19;11.52;;;10.18;;
10945;SDS011;5525;42.648;23.368;2023-06-22T03:46:46;13.23;;;10.23;;
10945;SDS011;5525;42.648;23.368;2023-06-22T03:49:13;14.07;;;10.70;;
10945;SDS011;5525;42.648;23.368;2023-06-22T03:51:40;11.40;;;10.20;;
10945;SDS011;5525;42.648;23.368;2023-06-22T03:54:06;21.67;;;11.82;;
10945;SDS011;5525;42.648;23.368;2023-06-22T03:56:33;16.90;;;10.80;;
10945;SDS011;5525;42.648;23.368;2023-06-22T03:58:59;13.77;;;10.48;;
10945;SDS011;5525;42.648;23.368;2023-06-22T04:01:27;15.05;;;10.77;;
10945;SDS011;5525;42.648;23.368;2023-06-22T04:03:54;15.02;;;11.18;;
10945;SDS011;5525;42.648;23.368;2023-06-22T04:06:21;15.77;;;11.20;;
10945;SDS011;5525;42.648;23.368;2023-06-22T04:08:48;21.77;;;12.52;;
10945;SDS011;5525;42.648;23.368;2023-06-22T04:11:16;12.85;;;10.68;;
10945;SDS011;5525;42.648;23.368;2023-06-22T04:13:42;22.15;;;12.85;;
10945;SDS011;5525;42.648;23.368;2023-06-22T04:16:09;18.10;;;11.88;;
10945;SDS011;5525;42.648;23.368;2023-06-22T04:18:37;17.30;;;12.00;;
10945;SDS011;5525;42.648;23.368;2023-06-22T04:21:04;14.63;;;11.82;;
10945;SDS011;5525;42.648;23.368;2023-06-22T04:23:31;14.02;;;12.20;;
10945;SDS011;5525;42.648;23.368;2023-06-22T04:25:57;14.10;;;11.98;;
10945;SDS011;5525;42.648;23.368;2023-06-22T04:28:25;14.15;;;12.75;;
10945;SDS011;5525;42.648;23.368;2023-06-22T04:30:52;16.70;;;12.75;;
10945;SDS011;5525;42.648;23.368;2023-06-22T04:33:23;14.32;;;12.35;;
10945;SDS011;5525;42.648;23.368;2023-06-22T04:35:51;14.32;;;11.68;;
10945;SDS011;5525;42.648;23.368;2023-06-22T04:38:17;13.65;;;12.23;;
10945;SDS011;5525;42.648;23.368;2023-06-22T04:40:46;13.65;;;12.25;;
10945;SDS011;5525;42.648;23.368;2023-06-22T04:43:13;18.58;;;12.55;;
10945;SDS011;5525;42.648;23.368;2023-06-22T04:45:40;13.00;;;11.60;;
10945;SDS011;5525;42.648;23.368;2023-06-22T04:48:06;19.83;;;12.10;;
10945;SDS011;5525;42.648;23.368;2023-06-22T04:50:34;46.47;;;15.15;;
10945;SDS011;5525;42.648;23.368;2023-06-22T04:53:05;26.95;;;13.45;;
10945;SDS011;5525;42.648;23.368;2023-06-22T04:55:32;35.65;;;13.48;;
10945;SDS011;5525;42.648;23.368;2023-06-22T04:57:59;27.98;;;13.23;;
10945;SDS011;5525;42.648;23.368;2023-06-22T05:00:29;24.70;;;13.25;;
10945;SDS011;5525;42.648;23.368;2023-06-22T05:02:56;16.17;;;12.85;;
10945;SDS011;5525;42.648;23.368;2023-06-22T05:05:24;32.28;;;19.00;;
10945;SDS011;5525;42.648;23.368;2023-06-22T05:07:51;26.00;;;18.35;;
10945;SDS011;5525;42.648;23.368;2023-06-22T05:10:21;20.33;;;16.40;;
10945;SDS011;5525;42.648;23.368;2023-06-22T05:12:48;14.73;;;13.10;;
10945;SDS011;5525;42.648;23.368;2023-06-22T05:15:14;18.35;;;12.38;;
10945;SDS011;5525;42.648;23.368;2023-06-22T05:17:41;15.73;;;12.88;;
10945;SDS011;5525;42.648;23.368;2023-06-22T05:20:09;24.52;;;14.13;;
10945;SDS011;5525;42.648;23.368;2023-06-22T05:22:36;14.48;;;12.90;;
10945;SDS011;5525;42.648;23.368;2023-06-22T05:25:03;16.70;;;13.57;;
10945;SDS011;5525;42.648;23.368;2023-06-22T05:27:32;14.82;;;12.45;;
10945;SDS011;5525;42.648;23.368;2023-06-22T05:29:59;13.65;;;12.27;;
10945;SDS011;5525;42.648;23.368;2023-06-22T05:32:25;25.10;;;12.57;;
10945;SDS011;5525;42.648;23.368;2023-06-22T05:34:52;24.17;;;13.25;;
10945;SDS011;5525;42.648;23.368;2023-06-22T05:37:19;15.52;;;12.15;;
10945;SDS011;5525;42.648;23.368;2023-06-22T05:39:46;14.90;;;11.50;;
10945;SDS011;5525;42.648;23.368;2023-06-22T05:42:13;13.35;;;11.80;;
10945;SDS011;5525;42.648;23.368;2023-06-22T05:44:41;16.10;;;13.07;;
10945;SDS011;5525;42.648;23.368;2023-06-22T05:47:07;16.40;;;12.95;;
10945;SDS011;5525;42.648;23.368;2023-06-22T05:49:34;26.45;;;13.35;;
10945;SDS011;5525;42.648;23.368;2023-06-22T05:52:01;14.18;;;12.20;;
10945;SDS011;5525;42.648;23.368;2023-06-22T05:54:28;32.67;;;14.18;;
10945;SDS011;5525;42.648;23.368;2023-06-22T05:56:54;20.48;;;13.15;;
10945;SDS011;5525;42.648;23.368;2023-06-22T05:59:21;15.05;;;12.88;;
10945;SDS011;5525;42.648;23.368;2023-06-22T06:01:49;19.10;;;12.88;;
10945;SDS011;5525;42.648;23.368;2023-06-22T06:04:16;26.55;;;13.13;;
10945;SDS011;5525;42.648;23.368;2023-06-22T06:06:43;16.13;;;11.80;;
10945;SDS011;5525;42.648;23.368;2023-06-22T06:09:10;15.55;;;12.35;;
10945;SDS011;5525;42.648;23.368;2023-06-22T06:11:37;13.77;;;12.32;;
10945;SDS011;5525;42.648;23.368;2023-06-22T06:14:03;16.88;;;12.10;;
10945;SDS011;5525;42.648;23.368;2023-06-22T06:16:30;12.25;;;11.15;;
10945;SDS011;5525;42.648;23.368;2023-06-22T06:18:58;13.02;;;11.80;;
10945;SDS011;5525;42.648;23.368;2023-06-22T06:21:25;13.30;;;10.82;;
10945;SDS011;5525;42.648;23.368;2023-06-22T06:23:51;12.43;;;11.23;;
10945;SDS011;5525;42.648;23.368;2023-06-22T06:26:19;12.02;;;10.93;;
10945;SDS011;5525;42.648;23.368;2023-06-22T06:28:51;13.90;;;11.25;;
10945;SDS011;5525;42.648;23.368;2023-06-22T06:31:18;16.15;;;11.60;;
10945;SDS011;5525;42.648;23.368;2023-06-22T06:33:46;13.40;;;10.88;;
10945;SDS011;5525;42.648;23.368;2023-06-22T06:36:14;14.13;;;10.85;;
10945;SDS011;5525;42.648;23.368;2023-06-22T06:38:41;13.20;;;11.30;;
10945;SDS011;5525;42.648;23.368;2023-06-22T06:41:08;12.65;;;11.52;;
10945;SDS011;5525;42.648;23.368;2023-06-22T06:43:36;12.88;;;11.57;;
10945;SDS011;5525;42.648;23.368;2023-06-22T06:46:03;27.45;;;12.50;;
10945;SDS011;5525;42.648;23.368;2023-06-22T06:48:31;15.32;;;11.13;;
10945;SDS011;5525;42.648;23.368;2023-06-22T06:50:58;13.30;;;11.82;;
10945;SDS011;5525;42.648;23.368;2023-06-22T06:53:26;90.97;;;16.40;;
10945;SDS011;5525;42.648;23.368;2023-06-22T06:55:53;12.48;;;11.18;;
10945;SDS011;5525;42.648;23.368;2023-06-22T06:58:20;18.98;;;11.63;;
10945;SDS011;5525;42.648;23.368;2023-06-22T07:00:48;17.02;;;11.88;;
10945;SDS011;5525;42.648;23.368;2023-06-22T07:03:14;15.32;;;11.95;;
10945;SDS011;5525;42.648;23.368;2023-06-22T07:05:41;12.60;;;11.30;;
10945;SDS011;5525;42.648;23.368;2023-06-22T07:08:08;15.45;;;11.27;;
10945;SDS011;5525;42.648;23.368;2023-06-22T07:10:36;12.68;;;11.38;;
10945;SDS011;5525;42.648;23.368;2023-06-22T07:13:02;13.80;;;11.55;;
10945;SDS011;5525;42.648;23.368;2023-06-22T07:15:29;12.32;;;10.98;;
10945;SDS011;5525;42.648;23.368;2023-06-22T07:17:56;13.90;;;11.15;;
10945;SDS011;5525;42.648;23.368;2023-06-22T07:20:22;14.32;;;11.50;;
10945;SDS011;5525;42.648;23.368;2023-06-22T07:22:49;25.70;;;11.32;;
10945;SDS011;5525;42.648;23.368;2023-06-22T07:25:15;12.93;;;11.73;;
10945;SDS011;5525;42.648;23.368;2023-06-22T07:27:45;12.07;;;10.93;;
10945;SDS011;5525;42.648;23.368;2023-06-22T07:30:22;14.48;;;11.45;;
10945;SDS011;5525;42.648;23.368;2023-06-22T07:32:49;12.90;;;10.98;;
10945;SDS011;5525;42.648;23.368;2023-06-22T07:35:16;13.43;;;10.95;;
10945;SDS011;5525;42.648;23.368;2023-06-22T07:37:42;15.27;;;10.07;;
10945;SDS011;5525;42.648;23.368;2023-06-22T07:40:09;11.45;;;10.23;;
10945;SDS011;5525;42.648;23.368;2023-06-22T07:42:37;14.52;;;10.95;;
10945;SDS011;5525;42.648;23.368;2023-06-22T07:45:06;13.23;;;10.20;;
10945;SDS011;5525;42.648;23.368;2023-06-22T07:47:33;12.10;;;10.18;;
10945;SDS011;5525;42.648;23.368;2023-06-22T07:50:01;11.55;;;10.25;;
10945;SDS011;5525;42.648;23.368;2023-06-22T07:52:29;14.60;;;11.02;;
10945;SDS011;5525;42.648;23.368;2023-06-22T07:54:57;15.77;;;11.07;;
10945;SDS011;5525;42.648;23.368;2023-06-22T07:57:23;23.45;;;12.05;;
10945;SDS011;5525;42.648;23.368;2023-06-22T07:59:57;14.02;;;11.60;;
10945;SDS011;5525;42.648;23.368;2023-06-22T08:02:25;13.02;;;11.73;;
10945;SDS011;5525;42.648;23.368;2023-06-22T08:04:52;15.57;;;11.35;;
10945;SDS011;5525;42.648;23.368;2023-06-22T08:07:18;12.75;;;11.55;;
10945;SDS011;5525;42.648;23.368;2023-06-22T08:09:46;13.45;;;11.70;;
10945;SDS011;5525;42.648;23.368;2023-06-22T08:12:13;13.57;;;11.02;;
10945;SDS011;5525;42.648;23.368;2023-06-22T08:14:41;12.82;;;11.55;;
10945;SDS011;5525;42.648;23.368;2023-06-22T08:17:09;15.00;;;11.48;;
10945;SDS011;5525;42.648;23.368;2023-06-22T08:19:38;11.65;;;10.55;;
10945;SDS011;5525;42.648;23.368;2023-06-22T08:22:05;11.60;;;10.50;;
10945;SDS011;5525;42.648;23.368;2023-06-22T08:24:31;12.75;;;11.45;;
10945;SDS011;5525;42.648;23.368;2023-06-22T08:26:58;11.57;;;10.55;;
10945;SDS011;5525;42.648;23.368;2023-06-22T08:29:25;15.40;;;11.80;;
10945;SDS011;5525;42.648;23.368;2023-06-22T08:31:51;16.10;;;11.43;;
10945;SDS011;5525;42.648;23.368;2023-06-22T08:34:18;13.70;;;11.20;;
10945;SDS011;5525;42.648;23.368;2023-06-22T08:36:47;14.77;;;12.95;;
10945;SDS011;5525;42.648;23.368;2023-06-22T08:39:17;15.90;;;12.38;;
10945;SDS011;5525;42.648;23.368;2023-06-22T08:41:44;14.63;;;11.50;;
10945;SDS011;5525;42.648;23.368;2023-06-22T08:44:11;12.95;;;11.40;;
10945;SDS011;5525;42.648;23.368;2023-06-22T08:46:38;13.25;;;11.18;;
10945;SDS011;5525;42.648;23.368;2023-06-22T08:49:05;11.98;;;10.88;;
10945;SDS011;5525;42.648;23.368;2023-06-22T08:51:32;12.38;;;11.07;;
10945;SDS011;5525;42.648;23.368;2023-06-22T08:54:00;12.55;;;11.25;;
10945;SDS011;5525;42.648;23.368;2023-06-22T08:56:27;14.70;;;11.18;;
10945;SDS011;5525;42.648;23.368;2023-06-22T08:58:54;11.30;;;10.25;;
10945;SDS011;5525;42.648;23.368;2023-06-22T09:01:21;11.80;;;10.70;;
10945;SDS011;5525;42.648;23.368;2023-06-22T09:03:48;11.38;;;10.30;;
10945;SDS011;5525;42.648;23.368;2023-06-22T09:06:20;11.27;;;10.10;;
10945;SDS011;5525;42.648;23.368;2023-06-22T09:08:50;12.32;;;10.65;;
10945;SDS011;5525;42.648;23.368;2023-06-22T09:11:19;13.85;;;11.00;;
10945;SDS011;5525;42.648;23.368;2023-06-22T09:13:45;12.05;;;11.02;;
10945;SDS011;5525;42.648;23.368;2023-06-22T09:16:12;13.05;;;11.35;;
10945;SDS011;5525;42.648;23.368;2023-06-22T09:18:39;10.68;;;9.73;;
10945;SDS011;5525;42.648;23.368;2023-06-22T09:21:06;12.27;;;9.20;;
10945;SDS011;5525;42.648;23.368;2023-06-22T09:23:33;11.48;;;10.45;;
10945;SDS011;5525;42.648;23.368;2023-06-22T09:25:59;11.00;;;10.00;;
10945;SDS011;5525;42.648;23.368;2023-06-22T09:28:27;11.82;;;10.60;;
10945;SDS011;5525;42.648;23.368;2023-06-22T09:30:54;11.20;;;10.20;;
10945;SDS011;5525;42.648;23.368;2023-06-22T09:33:25;10.00;;;9.13;;
10945;SDS011;5525;42.648;23.368;2023-06-22T09:35:51;10.85;;;9.85;;
10945;SDS011;5525;42.648;23.368;2023-06-22T09:38:18;10.05;;;9.00;;
10945;SDS011;5525;42.648;23.368;2023-06-22T09:40:45;11.50;;;8.65;;
10945;SDS011;5525;42.648;23.368;2023-06-22T09:43:11;8.73;;;8.02;;
10945;SDS011;5525;42.648;23.368;2023-06-22T09:45:39;8.38;;;7.68;;
10945;SDS011;5525;42.648;23.368;2023-06-22T09:48:06;9.30;;;8.32;;
10945;SDS011;5525;42.648;23.368;2023-06-22T09:50:34;9.32;;;7.88;;
10945;SDS011;5525;42.648;23.368;2023-06-22T09:53:01;9.30;;;8.45;;
10945;SDS011;5525;42.648;23.368;2023-06-22T09:55:28;10.80;;;9.90;;
10945;SDS011;5525;42.648;23.368;2023-06-22T09:57:55;12.93;;;9.52;;
10945;SDS011;5525;42.648;23.368;2023-06-22T10:00:23;12.30;;;9.60;;
10945;SDS011;5525;42.648;23.368;2023-06-22T10:02:52;10.00;;;9.10;;
10945;SDS011;5525;42.648;23.368;2023-06-22T10:05:20;10.52;;;9.52;;
10945;SDS011;5525;42.648;23.368;2023-06-22T10:07:47;9.90;;;8.90;;
10945;SDS011;5525;42.648;23.368;2023-06-22T10:10:14;13.60;;;10.05;;
10945;SDS011;5525;42.648;23.368;2023-06-22T10:12:41;10.93;;;9.68;;
10945;SDS011;5525;42.648;23.368;2023-06-22T10:15:10;10.57;;;9.23;;
10945;SDS011;5525;42.648;23.368;2023-06-22T10:17:37;10.77;;;9.68;;
10945;SDS011;5525;42.648;23.368;2023-06-22T10:20:06;10.38;;;9.45;;
10945;SDS011;5525;42.648;23.368;2023-06-22T10:22:37;10.05;;;9.13;;
10945;SDS011;5525;42.648;23.368;2023-06-22T10:25:05;10.93;;;9.10;;
10945;SDS011;5525;42.648;23.368;2023-06-22T10:27:32;11.90;;;9.68;;
10945;SDS011;5525;42.648;23.368;2023-06-22T10:29:59;10.95;;;9.85;;
10945;SDS011;5525;42.648;23.368;2023-06-22T10:32:25;10.68;;;9.68;;
10945;SDS011;5525;42.648;23.368;2023-06-22T10:34:53;10.57;;;9.60;;
10945;SDS011;5525;42.648;23.368;2023-06-22T10:37:21;11.23;;;9.85;;
10945;SDS011;5525;42.648;23.368;2023-06-22T10:39:48;10.82;;;9.73;;
10945;SDS011;5525;42.648;23.368;2023-06-22T10:42:15;10.90;;;9.80;;
10945;SDS011;5525;42.648;23.368;2023-06-22T10:44:42;11.20;;;9.35;;
10945;SDS011;5525;42.648;23.368;2023-06-22T10:47:09;11.10;;;10.10;;
10945;SDS011;5525;42.648;23.368;2023-06-22T10:49:38;11.13;;;10.18;;
10945;SDS011;5525;42.648;23.368;2023-06-22T10:52:06;11.05;;;9.75;;
10945;SDS011;5525;42.648;23.368;2023-06-22T10:54:35;11.70;;;10.50;;
10945;SDS011;5525;42.648;23.368;2023-06-22T10:57:03;12.23;;;10.45;;
10945;SDS011;5525;42.648;23.368;2023-06-22T10:59:30;11.32;;;10.23;;
10945;SDS011;5525;42.648;23.368;2023-06-22T11:01:57;14.05;;;9.10;;
10945;SDS011;5525;42.648;23.368;2023-06-22T11:04:24;9.50;;;8.70;;
10945;SDS011;5525;42.648;23.368;2023-06-22T11:06:51;9.35;;;8.40;;
10945;SDS011;5525;42.648;23.368;2023-06-22T11:09:18;9.68;;;8.63;;
10945;SDS011;5525;42.648;23.368;2023-06-22T11:11:47;9.40;;;8.43;;
10945;SDS011;5525;42.648;23.368;2023-06-22T11:14:15;10.32;;;8.73;;
10945;SDS011;5525;42.648;23.368;2023-06-22T11:16:43;9.20;;;8.50;;
10945;SDS011;5525;42.648;23.368;2023-06-22T11:19:09;9.02;;;8.23;;
10945;SDS011;5525;42.648;23.368;2023-06-22T11:21:36;8.48;;;7.88;;
10945;SDS011;5525;42.648;23.368;2023-06-22T11:24:03;9.23;;;8.52;;
10945;SDS011;5525;42.648;23.368;2023-06-22T11:26:30;9.43;;;8.32;;
10945;SDS011;5525;42.648;23.368;2023-06-22T11:28:59;9.50;;;8.60;;
10945;SDS011;5525;42.648;23.368;2023-06-22T11:31:26;13.23;;;8.88;;
10945;SDS011;5525;42.648;23.368;2023-06-22T11:33:52;8.80;;;7.93;;
10945;SDS011;5525;42.648;23.368;2023-06-22T11:36:19;9.50;;;8.70;;
10945;SDS011;5525;42.648;23.368;2023-06-22T11:38:46;9.93;;;8.35;;
10945;SDS011;5525;42.648;23.368;2023-06-22T11:41:13;8.52;;;7.82;;
10945;SDS011;5525;42.648;23.368;2023-06-22T11:43:39;8.93;;;8.13;;
10945;SDS011;5525;42.648;23.368;2023-06-22T11:46:07;8.45;;;7.70;;
10945;SDS011;5525;42.648;23.368;2023-06-22T11:48:34;8.80;;;7.68;;
10945;SDS011;5525;42.648;23.368;2023-06-22T11:51:01;8.75;;;8.02;;
10945;SDS011;5525;42.648;23.368;2023-06-22T11:53:28;8.43;;;7.80;;
10945;SDS011;5525;42.648;23.368;2023-06-22T11:55:55;9.20;;;8.40;;
10945;SDS011;5525;42.648;23.368;2023-06-22T11:58:22;10.10;;;8.45;;
10945;SDS011;5525;42.648;23.368;2023-06-22T12:00:49;8.80;;;8.10;;
10945;SDS011;5525;42.648;23.368;2023-06-22T12:03:18;8.38;;;7.68;;
10945;SDS011;5525;42.648;23.368;2023-06-22T12:05:46;8.95;;;8.05;;
10945;SDS011;5525;42.648;23.368;2023-06-22T12:08:13;10.20;;;8.68;;
10945;SDS011;5525;42.648;23.368;2023-06-22T12:10:42;9.02;;;8.23;;
10945;SDS011;5525;42.648;23.368;2023-06-22T12:13:09;9.43;;;8.45;;
10945;SDS011;5525;42.648;23.368;2023-06-22T12:15:35;8.35;;;7.55;;
10945;SDS011;5525;42.648;23.368;2023-06-22T12:18:02;9.52;;;8.60;;
10945;SDS011;5525;42.648;23.368;2023-06-22T12:20:30;25.60;;;9.07;;
10945;SDS011;5525;42.648;23.368;2023-06-22T12:22:57;9.98;;;8.98;;
10945;SDS011;5525;42.648;23.368;2023-06-22T12:25:24;10.75;;;9.27;;
10945;SDS011;5525;42.648;23.368;2023-06-22T12:27:51;24.67;;;22.17;;
10945;SDS011;5525;42.648;23.368;2023-06-22T12:30:17;17.80;;;13.13;;
10945;SDS011;5525;42.648;23.368;2023-06-22T12:32:44;43.13;;;20.75;;
10945;SDS011;5525;42.648;23.368;2023-06-22T12:35:11;14.73;;;10.98;;
10945;SDS011;5525;42.648;23.368;2023-06-22T12:37:40;27.83;;;16.02;;
10945;SDS011;5525;42.648;23.368;2023-06-22T12:40:08;17.45;;;11.82;;
10945;SDS011;5525;42.648;23.368;2023-06-22T12:42:35;15.55;;;10.50;;
10945;SDS011;5525;42.648;23.368;2023-06-22T12:45:02;10.95;;;9.38;;
10945;SDS011;5525;42.648;23.368;2023-06-22T12:47:29;18.73;;;10.80;;
10945;SDS011;5525;42.648;23.368;2023-06-22T12:49:55;13.35;;;10.13;;
10945;SDS011;5525;42.648;23.368;2023-06-22T12:52:22;12.93;;;9.57;;
10945;SDS011;5525;42.648;23.368;2023-06-22T12:54:50;12.45;;;10.27;;
10945;SDS011;5525;42.648;23.368;2023-06-22T12:57:17;16.10;;;11.25;;
10945;SDS011;5525;42.648;23.368;2023-06-22T12:59:45;12.98;;;11.38;;
10945;SDS011;5525;42.648;23.368;2023-06-22T13:02:11;19.02;;;13.70;;
10945;SDS011;5525;42.648;23.368;2023-06-22T13:04:38;12.10;;;10.85;;
10945;SDS011;5525;42.648;23.368;2023-06-22T13:07:05;16.05;;;12.90;;
10945;SDS011;5525;42.648;23.368;2023-06-22T13:09:32;13.50;;;11.23;;
10945;SDS011;5525;42.648;23.368;2023-06-22T13:12:01;11.77;;;10.13;;
10945;SDS011;5525;42.648;23.368;2023-06-22T13:14:28;13.38;;;11.75;;
10945;SDS011;5525;42.648;23.368;2023-06-22T13:16:54;14.18;;;11.68;;
10945;SDS011;5525;42.648;23.368;2023-06-22T13:19:21;12.80;;;11.40;;
10945;SDS011;5525;42.648;23.368;2023-06-22T13:21:47;17.52;;;13.43;;
10945;SDS011;5525;42.648;23.368;2023-06-22T13:24:14;14.48;;;12.15;;
10945;SDS011;5525;42.648;23.368;2023-06-22T13:26:41;14.93;;;11.80;;
10945;SDS011;5525;42.648;23.368;2023-06-22T13:29:09;13.50;;;11.30;;
10945;SDS011;5525;42.648;23.368;2023-06-22T13:31:36;12.95;;;10.75;;
10945;SDS011;5525;42.648;23.368;2023-06-22T13:34:03;14.10;;;10.07;;
10945;SDS011;5525;42.648;23.368;2023-06-22T13:36:30;12.20;;;9.80;;
10945;SDS011;5525;42.648;23.368;2023-06-22T13:38:56;14.82;;;9.55;;
10945;SDS011;5525;42.648;23.368;2023-06-22T13:41:23;16.10;;;10.80;;
10945;SDS011;5525;42.648;23.368;2023-06-22T13:43:50;23.17;;;11.75;;
10945;SDS011;5525;42.648;23.368;2023-06-22T13:46:19;12.23;;;9.88;;
10945;SDS011;5525;42.648;23.368;2023-06-22T13:48:45;11.15;;;9.50;;
10945;SDS011;5525;42.648;23.368;2023-06-22T13:51:12;15.35;;;11.43;;
10945;SDS011;5525;42.648;23.368;2023-06-22T13:53:39;16.13;;;11.88;;
10945;SDS011;5525;42.648;23.368;2023-06-22T13:56:05;11.40;;;9.85;;
10945;SDS011;5525;42.648;23.368;2023-06-22T13:58:32;12.77;;;9.75;;
10945;SDS011;5525;42.648;23.368;2023-06-22T14:00:58;12.57;;;10.43;;
10945;SDS011;5525;42.648;23.368;2023-06-22T14:03:26;14.77;;;11.07;;
10945;SDS011;5525;42.648;23.368;2023-06-22T14:05:53;11.30;;;10.10;;
10945;SDS011;5525;42.648;23.368;2023-06-22T14:08:21;11.38;;;9.98;;
10945;SDS011;5525;42.648;23.368;2023-06-22T14:10:48;13.52;;;10.13;;
10945;SDS011;5525;42.648;23.368;2023-06-22T14:13:15;13.68;;;11.20;;
10945;SDS011;5525;42.648;23.368;2023-06-22T14:15:42;10.63;;;9.57;;
10945;SDS011;5525;42.648;23.368;2023-06-22T14:18:08;12.38;;;10.48;;
10945;SDS011;5525;42.648;23.368;2023-06-22T14:20:37;11.43;;;9.75;;
10945;SDS011;5525;42.648;23.368;2023-06-22T14:23:05;11.75;;;10.52;;
10945;SDS011;5525;42.648;23.368;2023-06-22T14:25:31;15.27;;;10.55;;
10945;SDS011;5525;42.648;23.368;2023-06-22T14:27:58;14.25;;;10.80;;
10945;SDS011;5525;42.648;23.368;2023-06-22T14:30:25;12.50;;;11.20;;